sensor_id;sensor_type;location;lat;lon;timestamp;P1;durP1;ratioP1;P2;durP2;ratioP2
29500;SDS011;16450;50.288;10.966;2023-08-06T00:01:14;3.77;;;2.50;;
29500;SDS011;16450;50.288;10.966;2023-08-06T00:04:16;5.20;;;2.20;;
29500;SDS011;16450;50.288;10.966;2023-08-06T00:07:18;3.70;;;2.80;;
29500;SDS011;16450;50.288;10.966;2023-08-06T00:10:20;4.83;;;2.60;;
29500;SDS011;16450;50.288;10.966;2023-08-06T00:13:22;4.03;;;2.70;;
29500;SDS011;16450;50.288;10.966;2023-08-06T00:16:24;3.97;;;2.57;;
29500;SDS011;16450;50.288;10.966;2023-08-06T00:19:26;5.17;;;2.73;;
29500;SDS011;16450;50.288;10.966;2023-08-06T00:22:28;4.23;;;2.70;;
29500;SDS011;16450;50.288;10.966;2023-08-06T00:25:29;4.13;;;2.40;;
29500;SDS011;16450;50.288;10.966;2023-08-06T00:28:31;3.37;;;2.30;;
29500;SDS011;16450;50.288;10.966;2023-08-06T00:31:33;3.77;;;1.87;;
29500;SDS011;16450;50.288;10.966;2023-08-06T00:34:35;3.03;;;2.30;;
29500;SDS011;16450;50.288;10.966;2023-08-06T00:37:37;2.80;;;2.40;;
29500;SDS011;16450;50.288;10.966;2023-08-06T00:40:39;2.80;;;2.20;;
29500;SDS011;16450;50.288;10.966;2023-08-06T00:43:41;3.10;;;2.20;;
29500;SDS011;16450;50.288;10.966;2023-08-06T00:46:43;2.47;;;2.20;;
29500;SDS011;16450;50.288;10.966;2023-08-06T00:49:44;4.13;;;2.23;;
29500;SDS011;16450;50.288;10.966;2023-08-06T00:52:46;2.60;;;2.20;;
29500;SDS011;16450;50.288;10.966;2023-08-06T00:55:48;3.00;;;2.17;;
29500;SDS011;16450;50.288;10.966;2023-08-06T00:58:51;3.40;;;2.20;;
29500;SDS011;16450;50.288;10.966;2023-08-06T01:01:53;3.73;;;2.27;;
29500;SDS011;16450;50.288;10.966;2023-08-06T01:04:55;4.77;;;2.20;;
29500;SDS011;16450;50.288;10.966;2023-08-06T01:11:26;4.77;;;2.37;;
29500;SDS011;16450;50.288;10.966;2023-08-06T01:15:06;3.03;;;2.33;;
29500;SDS011;16450;50.288;10.966;2023-08-06T01:18:16;3.07;;;2.40;;
29500;SDS011;16450;50.288;10.966;2023-08-06T01:21:18;4.43;;;2.37;;
29500;SDS011;16450;50.288;10.966;2023-08-06T01:24:21;4.97;;;2.37;;
29500;SDS011;16450;50.288;10.966;2023-08-06T01:30:25;4.80;;;2.67;;
29500;SDS011;16450;50.288;10.966;2023-08-06T01:33:30;5.43;;;2.87;;
29500;SDS011;16450;50.288;10.966;2023-08-06T01:36:36;3.37;;;2.80;;
29500;SDS011;16450;50.288;10.966;2023-08-06T01:39:39;3.83;;;2.60;;
29500;SDS011;16450;50.288;10.966;2023-08-06T01:42:43;4.83;;;2.83;;
29500;SDS011;16450;50.288;10.966;2023-08-06T01:45:45;3.57;;;3.00;;
29500;SDS011;16450;50.288;10.966;2023-08-06T01:48:47;3.60;;;2.73;;
29500;SDS011;16450;50.288;10.966;2023-08-06T01:51:49;5.70;;;3.20;;
29500;SDS011;16450;50.288;10.966;2023-08-06T01:54:51;5.50;;;2.97;;
29500;SDS011;16450;50.288;10.966;2023-08-06T01:57:53;4.47;;;3.27;;
29500;SDS011;16450;50.288;10.966;2023-08-06T02:00:55;3.63;;;2.60;;
29500;SDS011;16450;50.288;10.966;2023-08-06T02:03:57;3.73;;;2.77;;
29500;SDS011;16450;50.288;10.966;2023-08-06T02:06:59;7.43;;;2.87;;
29500;SDS011;16450;50.288;10.966;2023-08-06T02:10:01;4.67;;;2.93;;
29500;SDS011;16450;50.288;10.966;2023-08-06T02:13:03;4.03;;;3.10;;
29500;SDS011;16450;50.288;10.966;2023-08-06T02:16:06;4.37;;;2.87;;
29500;SDS011;16450;50.288;10.966;2023-08-06T02:19:10;3.67;;;2.90;;
29500;SDS011;16450;50.288;10.966;2023-08-06T02:22:12;5.07;;;3.17;;
29500;SDS011;16450;50.288;10.966;2023-08-06T02:25:14;3.77;;;2.97;;
29500;SDS011;16450;50.288;10.966;2023-08-06T02:28:16;4.27;;;3.20;;
29500;SDS011;16450;50.288;10.966;2023-08-06T02:31:18;4.20;;;3.10;;
29500;SDS011;16450;50.288;10.966;2023-08-06T02:34:20;5.13;;;3.40;;
29500;SDS011;16450;50.288;10.966;2023-08-06T02:37:22;5.03;;;2.83;;
29500;SDS011;16450;50.288;10.966;2023-08-06T02:40:24;3.60;;;2.90;;
29500;SDS011;16450;50.288;10.966;2023-08-06T02:43:26;4.60;;;3.10;;
29500;SDS011;16450;50.288;10.966;2023-08-06T02:46:28;5.73;;;3.23;;
29500;SDS011;16450;50.288;10.966;2023-08-06T02:49:30;3.60;;;3.07;;
29500;SDS011;16450;50.288;10.966;2023-08-06T02:52:32;3.60;;;3.03;;
29500;SDS011;16450;50.288;10.966;2023-08-06T02:55:34;3.67;;;3.17;;
29500;SDS011;16450;50.288;10.966;2023-08-06T02:58:36;3.10;;;2.80;;
29500;SDS011;16450;50.288;10.966;2023-08-06T03:01:38;3.77;;;3.07;;
29500;SDS011;16450;50.288;10.966;2023-08-06T03:04:40;5.53;;;3.30;;
29500;SDS011;16450;50.288;10.966;2023-08-06T03:07:42;3.83;;;3.00;;
29500;SDS011;16450;50.288;10.966;2023-08-06T03:10:44;4.20;;;3.30;;
29500;SDS011;16450;50.288;10.966;2023-08-06T03:13:47;3.90;;;3.40;;
29500;SDS011;16450;50.288;10.966;2023-08-06T03:16:49;8.17;;;3.37;;
29500;SDS011;16450;50.288;10.966;2023-08-06T03:19:51;3.50;;;3.20;;
29500;SDS011;16450;50.288;10.966;2023-08-06T03:22:53;4.17;;;3.30;;
29500;SDS011;16450;50.288;10.966;2023-08-06T03:25:55;5.53;;;3.60;;
29500;SDS011;16450;50.288;10.966;2023-08-06T03:28:57;6.13;;;3.23;;
29500;SDS011;16450;50.288;10.966;2023-08-06T03:31:59;4.43;;;3.73;;
29500;SDS011;16450;50.288;10.966;2023-08-06T03:35:01;5.13;;;3.67;;
29500;SDS011;16450;50.288;10.966;2023-08-06T03:38:03;4.23;;;3.57;;
29500;SDS011;16450;50.288;10.966;2023-08-06T03:41:05;5.03;;;3.43;;
29500;SDS011;16450;50.288;10.966;2023-08-06T03:44:07;4.40;;;3.80;;
29500;SDS011;16450;50.288;10.966;2023-08-06T03:47:09;5.70;;;3.50;;
29500;SDS011;16450;50.288;10.966;2023-08-06T03:50:11;4.27;;;3.73;;
29500;SDS011;16450;50.288;10.966;2023-08-06T03:53:13;4.90;;;3.60;;
29500;SDS011;16450;50.288;10.966;2023-08-06T03:56:15;3.83;;;3.43;;
29500;SDS011;16450;50.288;10.966;2023-08-06T03:59:17;3.80;;;3.37;;
29500;SDS011;16450;50.288;10.966;2023-08-06T04:02:19;4.23;;;3.83;;
29500;SDS011;16450;50.288;10.966;2023-08-06T04:05:21;6.03;;;3.67;;
29500;SDS011;16450;50.288;10.966;2023-08-06T04:08:22;5.60;;;3.97;;
29500;SDS011;16450;50.288;10.966;2023-08-06T04:11:24;6.53;;;3.83;;
29500;SDS011;16450;50.288;10.966;2023-08-06T04:14:27;4.07;;;3.57;;
29500;SDS011;16450;50.288;10.966;2023-08-06T04:17:29;4.53;;;3.37;;
29500;SDS011;16450;50.288;10.966;2023-08-06T04:20:31;7.10;;;3.30;;
29500;SDS011;16450;50.288;10.966;2023-08-06T04:23:33;5.83;;;3.73;;
29500;SDS011;16450;50.288;10.966;2023-08-06T04:26:35;3.97;;;3.17;;
29500;SDS011;16450;50.288;10.966;2023-08-06T04:29:37;5.07;;;3.50;;
29500;SDS011;16450;50.288;10.966;2023-08-06T04:32:39;4.93;;;3.30;;
29500;SDS011;16450;50.288;10.966;2023-08-06T04:35:41;5.10;;;3.23;;
29500;SDS011;16450;50.288;10.966;2023-08-06T04:38:43;4.97;;;3.20;;
29500;SDS011;16450;50.288;10.966;2023-08-06T04:41:48;5.43;;;3.57;;
29500;SDS011;16450;50.288;10.966;2023-08-06T04:44:51;3.87;;;3.40;;
29500;SDS011;16450;50.288;10.966;2023-08-06T04:47:52;4.73;;;3.20;;
29500;SDS011;16450;50.288;10.966;2023-08-06T04:50:54;6.70;;;3.43;;
29500;SDS011;16450;50.288;10.966;2023-08-06T04:53:57;4.93;;;3.40;;
29500;SDS011;16450;50.288;10.966;2023-08-06T04:56:58;4.20;;;3.53;;
29500;SDS011;16450;50.288;10.966;2023-08-06T05:00:01;6.67;;;4.73;;
29500;SDS011;16450;50.288;10.966;2023-08-06T05:03:03;4.93;;;3.67;;
29500;SDS011;16450;50.288;10.966;2023-08-06T05:06:05;5.83;;;3.53;;
29500;SDS011;16450;50.288;10.966;2023-08-06T05:09:06;4.27;;;3.50;;
29500;SDS011;16450;50.288;10.966;2023-08-06T05:12:08;5.10;;;3.73;;
29500;SDS011;16450;50.288;10.966;2023-08-06T05:15:10;3.80;;;3.40;;
29500;SDS011;16450;50.288;10.966;2023-08-06T05:18:12;5.77;;;3.10;;
29500;SDS011;16450;50.288;10.966;2023-08-06T05:21:14;4.33;;;3.40;;
29500;SDS011;16450;50.288;10.966;2023-08-06T05:24:17;5.80;;;3.50;;
29500;SDS011;16450;50.288;10.966;2023-08-06T05:27:23;5.07;;;3.70;;
29500;SDS011;16450;50.288;10.966;2023-08-06T05:30:25;5.30;;;3.70;;
29500;SDS011;16450;50.288;10.966;2023-08-06T05:33:26;3.70;;;3.30;;
29500;SDS011;16450;50.288;10.966;2023-08-06T05:36:28;4.80;;;3.00;;
29500;SDS011;16450;50.288;10.966;2023-08-06T05:39:30;4.60;;;3.70;;
29500;SDS011;16450;50.288;10.966;2023-08-06T05:42:32;5.53;;;3.30;;
29500;SDS011;16450;50.288;10.966;2023-08-06T05:45:34;4.67;;;3.07;;
29500;SDS011;16450;50.288;10.966;2023-08-06T05:48:36;7.70;;;3.20;;
29500;SDS011;16450;50.288;10.966;2023-08-06T05:51:38;3.73;;;3.33;;
29500;SDS011;16450;50.288;10.966;2023-08-06T05:54:40;3.50;;;3.17;;
29500;SDS011;16450;50.288;10.966;2023-08-06T05:57:42;4.73;;;3.30;;
29500;SDS011;16450;50.288;10.966;2023-08-06T06:00:44;5.47;;;3.70;;
29500;SDS011;16450;50.288;10.966;2023-08-06T06:03:46;4.30;;;3.47;;
29500;SDS011;16450;50.288;10.966;2023-08-06T06:06:48;4.63;;;3.50;;
29500;SDS011;16450;50.288;10.966;2023-08-06T06:09:51;4.53;;;3.80;;
29500;SDS011;16450;50.288;10.966;2023-08-06T06:12:53;5.90;;;3.90;;
29500;SDS011;16450;50.288;10.966;2023-08-06T06:15:55;4.53;;;3.93;;
29500;SDS011;16450;50.288;10.966;2023-08-06T06:18:57;5.67;;;3.80;;
29500;SDS011;16450;50.288;10.966;2023-08-06T06:22:01;5.63;;;3.90;;
29500;SDS011;16450;50.288;10.966;2023-08-06T06:25:03;5.60;;;3.60;;
29500;SDS011;16450;50.288;10.966;2023-08-06T06:28:05;3.83;;;3.37;;
29500;SDS011;16450;50.288;10.966;2023-08-06T06:31:07;6.00;;;3.63;;
29500;SDS011;16450;50.288;10.966;2023-08-06T06:34:13;4.47;;;3.60;;
29500;SDS011;16450;50.288;10.966;2023-08-06T06:37:16;6.20;;;4.33;;
29500;SDS011;16450;50.288;10.966;2023-08-06T06:40:17;4.87;;;4.10;;
29500;SDS011;16450;50.288;10.966;2023-08-06T06:43:19;7.73;;;5.53;;
29500;SDS011;16450;50.288;10.966;2023-08-06T06:46:21;5.40;;;3.73;;
29500;SDS011;16450;50.288;10.966;2023-08-06T06:49:23;6.50;;;3.80;;
29500;SDS011;16450;50.288;10.966;2023-08-06T06:52:25;5.47;;;3.57;;
29500;SDS011;16450;50.288;10.966;2023-08-06T06:55:30;4.83;;;3.80;;
29500;SDS011;16450;50.288;10.966;2023-08-06T06:58:32;4.37;;;3.70;;
29500;SDS011;16450;50.288;10.966;2023-08-06T07:01:34;6.80;;;3.63;;
29500;SDS011;16450;50.288;10.966;2023-08-06T07:04:36;4.40;;;3.60;;
29500;SDS011;16450;50.288;10.966;2023-08-06T07:07:38;4.07;;;2.90;;
29500;SDS011;16450;50.288;10.966;2023-08-06T07:10:40;3.97;;;2.43;;
29500;SDS011;16450;50.288;10.966;2023-08-06T07:13:44;4.63;;;2.80;;
29500;SDS011;16450;50.288;10.966;2023-08-06T07:16:45;3.17;;;2.60;;
29500;SDS011;16450;50.288;10.966;2023-08-06T07:19:47;4.67;;;2.83;;
29500;SDS011;16450;50.288;10.966;2023-08-06T07:22:49;6.33;;;3.10;;
29500;SDS011;16450;50.288;10.966;2023-08-06T07:25:51;4.40;;;3.07;;
29500;SDS011;16450;50.288;10.966;2023-08-06T07:28:53;8.27;;;3.20;;
29500;SDS011;16450;50.288;10.966;2023-08-06T07:31:56;3.33;;;2.67;;
29500;SDS011;16450;50.288;10.966;2023-08-06T07:35:00;3.00;;;2.57;;
29500;SDS011;16450;50.288;10.966;2023-08-06T07:38:04;4.60;;;3.30;;
29500;SDS011;16450;50.288;10.966;2023-08-06T07:41:06;3.40;;;3.03;;
29500;SDS011;16450;50.288;10.966;2023-08-06T07:44:08;3.57;;;2.73;;
29500;SDS011;16450;50.288;10.966;2023-08-06T07:47:10;4.30;;;2.50;;
29500;SDS011;16450;50.288;10.966;2023-08-06T07:50:12;4.13;;;2.90;;
29500;SDS011;16450;50.288;10.966;2023-08-06T07:53:15;5.37;;;2.63;;
29500;SDS011;16450;50.288;10.966;2023-08-06T07:56:17;3.97;;;2.57;;
29500;SDS011;16450;50.288;10.966;2023-08-06T07:59:19;3.37;;;1.70;;
29500;SDS011;16450;50.288;10.966;2023-08-06T08:02:21;2.83;;;2.35;;
29500;SDS011;16450;50.288;10.966;2023-08-06T08:05:23;3.00;;;2.00;;
29500;SDS011;16450;50.288;10.966;2023-08-06T08:08:26;3.35;;;1.90;;
29500;SDS011;16450;50.288;10.966;2023-08-06T08:11:27;4.20;;;2.08;;
29500;SDS011;16450;50.288;10.966;2023-08-06T08:14:32;3.03;;;2.00;;
29500;SDS011;16450;50.288;10.966;2023-08-06T08:17:38;2.30;;;1.90;;
29500;SDS011;16450;50.288;10.966;2023-08-06T08:20:41;2.83;;;1.90;;
29500;SDS011;16450;50.288;10.966;2023-08-06T08:23:43;3.00;;;1.63;;
29500;SDS011;16450;50.288;10.966;2023-08-06T08:26:46;3.40;;;1.93;;
29500;SDS011;16450;50.288;10.966;2023-08-06T08:29:49;3.30;;;1.90;;
29500;SDS011;16450;50.288;10.966;2023-08-06T08:32:51;2.90;;;1.90;;
29500;SDS011;16450;50.288;10.966;2023-08-06T08:35:53;3.53;;;1.83;;
29500;SDS011;16450;50.288;10.966;2023-08-06T08:38:55;5.10;;;2.00;;
29500;SDS011;16450;50.288;10.966;2023-08-06T08:48:30;3.25;;;1.80;;
29500;SDS011;16450;50.288;10.966;2023-08-06T08:51:33;2.03;;;1.52;;
29500;SDS011;16450;50.288;10.966;2023-08-06T09:12:00;3.88;;;1.58;;
29500;SDS011;16450;50.288;10.966;2023-08-06T09:15:06;4.43;;;1.70;;
29500;SDS011;16450;50.288;10.966;2023-08-06T09:25:16;1.60;;;1.20;;
29500;SDS011;16450;50.288;10.966;2023-08-06T09:28:23;2.17;;;1.10;;
29500;SDS011;16450;50.288;10.966;2023-08-06T09:31:32;2.17;;;0.93;;
29500;SDS011;16450;50.288;10.966;2023-08-06T09:34:35;2.70;;;1.30;;
29500;SDS011;16450;50.288;10.966;2023-08-06T09:37:41;2.60;;;1.20;;
29500;SDS011;16450;50.288;10.966;2023-08-06T09:54:56;1.93;;;1.10;;
29500;SDS011;16450;50.288;10.966;2023-08-06T09:57:59;0.93;;;0.70;;
29500;SDS011;16450;50.288;10.966;2023-08-06T10:01:07;0.87;;;0.83;;
29500;SDS011;16450;50.288;10.966;2023-08-06T10:04:09;2.63;;;0.70;;
29500;SDS011;16450;50.288;10.966;2023-08-06T10:07:43;0.75;;;0.65;;
29500;SDS011;16450;50.288;10.966;2023-08-06T10:10:46;1.05;;;0.80;;
29500;SDS011;16450;50.288;10.966;2023-08-06T10:17:48;1.58;;;0.80;;
29500;SDS011;16450;50.288;10.966;2023-08-06T10:25:16;0.57;;;0.40;;
29500;SDS011;16450;50.288;10.966;2023-08-06T10:28:18;1.40;;;0.47;;
29500;SDS011;16450;50.288;10.966;2023-08-06T10:31:52;0.70;;;0.50;;
29500;SDS011;16450;50.288;10.966;2023-08-06T10:45:21;0.60;;;0.50;;
29500;SDS011;16450;50.288;10.966;2023-08-06T10:51:40;1.20;;;0.70;;
29500;SDS011;16450;50.288;10.966;2023-08-06T10:54:42;1.63;;;0.40;;
29500;SDS011;16450;50.288;10.966;2023-08-06T10:57:44;0.70;;;0.70;;
29500;SDS011;16450;50.288;10.966;2023-08-06T11:00:46;0.83;;;0.50;;
29500;SDS011;16450;50.288;10.966;2023-08-06T11:03:48;1.33;;;0.60;;
29500;SDS011;16450;50.288;10.966;2023-08-06T11:06:52;0.40;;;0.40;;
29500;SDS011;16450;50.288;10.966;2023-08-06T11:10:00;1.17;;;0.53;;
29500;SDS011;16450;50.288;10.966;2023-08-06T11:13:06;0.87;;;0.63;;
29500;SDS011;16450;50.288;10.966;2023-08-06T11:16:09;0.70;;;0.50;;
29500;SDS011;16450;50.288;10.966;2023-08-06T11:19:11;0.60;;;0.50;;
29500;SDS011;16450;50.288;10.966;2023-08-06T11:22:17;1.50;;;0.60;;
29500;SDS011;16450;50.288;10.966;2023-08-06T11:25:20;1.33;;;0.40;;
29500;SDS011;16450;50.288;10.966;2023-08-06T11:28:23;0.50;;;0.50;;
29500;SDS011;16450;50.288;10.966;2023-08-06T11:31:25;0.88;;;0.60;;
29500;SDS011;16450;50.288;10.966;2023-08-06T11:34:27;0.50;;;0.50;;
29500;SDS011;16450;50.288;10.966;2023-08-06T11:37:29;0.50;;;0.50;;
29500;SDS011;16450;50.288;10.966;2023-08-06T11:40:31;2.00;;;0.40;;
29500;SDS011;16450;50.288;10.966;2023-08-06T11:43:34;0.30;;;0.30;;
29500;SDS011;16450;50.288;10.966;2023-08-06T11:46:51;0.57;;;0.30;;
29500;SDS011;16450;50.288;10.966;2023-08-06T11:49:54;0.57;;;0.40;;
29500;SDS011;16450;50.288;10.966;2023-08-06T11:52:57;0.38;;;0.20;;
29500;SDS011;16450;50.288;10.966;2023-08-06T11:56:00;1.98;;;0.32;;
29500;SDS011;16450;50.288;10.966;2023-08-06T11:59:02;0.38;;;0.20;;
29500;SDS011;16450;50.288;10.966;2023-08-06T12:02:05;0.40;;;0.40;;
29500;SDS011;16450;50.288;10.966;2023-08-06T12:05:11;0.50;;;0.28;;
29500;SDS011;16450;50.288;10.966;2023-08-06T12:08:14;2.08;;;0.43;;
29500;SDS011;16450;50.288;10.966;2023-08-06T12:11:16;0.47;;;0.47;;
29500;SDS011;16450;50.288;10.966;2023-08-06T12:14:17;1.20;;;0.35;;
29500;SDS011;16450;50.288;10.966;2023-08-06T12:17:19;2.75;;;0.50;;
29500;SDS011;16450;50.288;10.966;2023-08-06T12:20:21;1.23;;;0.60;;
29500;SDS011;16450;50.288;10.966;2023-08-06T12:23:23;2.30;;;0.40;;
29500;SDS011;16450;50.288;10.966;2023-08-06T12:26:25;1.13;;;0.37;;
29500;SDS011;16450;50.288;10.966;2023-08-06T12:29:27;0.60;;;0.20;;
29500;SDS011;16450;50.288;10.966;2023-08-06T12:32:29;1.03;;;0.30;;
29500;SDS011;16450;50.288;10.966;2023-08-06T12:35:32;0.70;;;0.37;;
29500;SDS011;16450;50.288;10.966;2023-08-06T12:42:05;0.33;;;0.33;;
29500;SDS011;16450;50.288;10.966;2023-08-06T12:48:46;2.40;;;0.40;;
29500;SDS011;16450;50.288;10.966;2023-08-06T13:02:25;0.90;;;0.50;;
29500;SDS011;16450;50.288;10.966;2023-08-06T13:05:41;0.40;;;0.40;;
29500;SDS011;16450;50.288;10.966;2023-08-06T13:12:17;1.63;;;0.70;;
29500;SDS011;16450;50.288;10.966;2023-08-06T13:15:21;1.50;;;0.40;;
29500;SDS011;16450;50.288;10.966;2023-08-06T13:18:23;0.50;;;0.50;;
29500;SDS011;16450;50.288;10.966;2023-08-06T13:21:31;0.70;;;0.40;;
29500;SDS011;16450;50.288;10.966;2023-08-06T13:31:01;1.00;;;0.50;;
29500;SDS011;16450;50.288;10.966;2023-08-06T13:40:36;0.43;;;0.43;;
29500;SDS011;16450;50.288;10.966;2023-08-06T13:43:38;1.55;;;0.50;;
29500;SDS011;16450;50.288;10.966;2023-08-06T13:46:41;0.52;;;0.45;;
29500;SDS011;16450;50.288;10.966;2023-08-06T13:56:17;0.70;;;0.50;;
29500;SDS011;16450;50.288;10.966;2023-08-06T14:06:11;0.80;;;0.60;;
29500;SDS011;16450;50.288;10.966;2023-08-06T14:09:13;0.50;;;0.50;;
29500;SDS011;16450;50.288;10.966;2023-08-06T14:12:19;0.52;;;0.47;;
29500;SDS011;16450;50.288;10.966;2023-08-06T14:15:21;0.80;;;0.60;;
29500;SDS011;16450;50.288;10.966;2023-08-06T14:18:23;0.47;;;0.45;;
29500;SDS011;16450;50.288;10.966;2023-08-06T14:21:25;0.47;;;0.47;;
29500;SDS011;16450;50.288;10.966;2023-08-06T14:24:27;0.60;;;0.40;;
29500;SDS011;16450;50.288;10.966;2023-08-06T14:27:45;0.37;;;0.30;;
29500;SDS011;16450;50.288;10.966;2023-08-06T14:34:04;2.13;;;0.30;;
29500;SDS011;16450;50.288;10.966;2023-08-06T14:37:06;0.40;;;0.40;;
29500;SDS011;16450;50.288;10.966;2023-08-06T14:40:08;0.23;;;0.23;;
29500;SDS011;16450;50.288;10.966;2023-08-06T14:43:10;0.30;;;0.30;;
29500;SDS011;16450;50.288;10.966;2023-08-06T14:46:15;0.30;;;0.30;;
29500;SDS011;16450;50.288;10.966;2023-08-06T14:49:17;3.40;;;0.30;;
29500;SDS011;16450;50.288;10.966;2023-08-06T14:52:19;1.50;;;0.30;;
29500;SDS011;16450;50.288;10.966;2023-08-06T14:55:25;0.27;;;0.20;;
29500;SDS011;16450;50.288;10.966;2023-08-06T14:58:27;3.30;;;0.30;;
29500;SDS011;16450;50.288;10.966;2023-08-06T15:01:29;1.50;;;0.40;;
29500;SDS011;16450;50.288;10.966;2023-08-06T15:04:31;1.30;;;0.30;;
29500;SDS011;16450;50.288;10.966;2023-08-06T15:07:33;1.80;;;0.30;;
29500;SDS011;16450;50.288;10.966;2023-08-06T15:10:36;1.20;;;0.47;;
29500;SDS011;16450;50.288;10.966;2023-08-06T15:13:38;0.80;;;0.77;;
29500;SDS011;16450;50.288;10.966;2023-08-06T15:16:40;0.40;;;0.40;;
29500;SDS011;16450;50.288;10.966;2023-08-06T15:19:42;2.93;;;0.60;;
29500;SDS011;16450;50.288;10.966;2023-08-06T15:22:44;0.33;;;0.33;;
29500;SDS011;16450;50.288;10.966;2023-08-06T15:25:45;0.70;;;0.30;;
29500;SDS011;16450;50.288;10.966;2023-08-06T15:28:47;0.47;;;0.33;;
29500;SDS011;16450;50.288;10.966;2023-08-06T15:31:49;0.20;;;0.20;;
29500;SDS011;16450;50.288;10.966;2023-08-06T15:34:51;0.30;;;0.23;;
29500;SDS011;16450;50.288;10.966;2023-08-06T15:37:54;0.93;;;0.30;;
29500;SDS011;16450;50.288;10.966;2023-08-06T15:40:56;1.80;;;0.20;;
29500;SDS011;16450;50.288;10.966;2023-08-06T15:43:57;2.00;;;0.30;;
29500;SDS011;16450;50.288;10.966;2023-08-06T15:46:59;0.10;;;0.10;;
29500;SDS011;16450;50.288;10.966;2023-08-06T15:50:01;0.20;;;0.20;;
29500;SDS011;16450;50.288;10.966;2023-08-06T15:53:03;0.10;;;0.10;;
29500;SDS011;16450;50.288;10.966;2023-08-06T15:56:05;0.30;;;0.20;;
29500;SDS011;16450;50.288;10.966;2023-08-06T15:59:20;0.10;;;0.10;;
29500;SDS011;16450;50.288;10.966;2023-08-06T16:02:26;0.57;;;0.10;;
29500;SDS011;16450;50.288;10.966;2023-08-06T16:05:28;1.30;;;0.20;;
29500;SDS011;16450;50.288;10.966;2023-08-06T16:08:32;0.33;;;0.20;;
29500;SDS011;16450;50.288;10.966;2023-08-06T16:11:34;0.30;;;0.20;;
29500;SDS011;16450;50.288;10.966;2023-08-06T16:14:36;0.20;;;0.20;;
29500;SDS011;16450;50.288;10.966;2023-08-06T16:17:38;0.73;;;0.20;;
29500;SDS011;16450;50.288;10.966;2023-08-06T16:20:41;0.97;;;0.17;;
29500;SDS011;16450;50.288;10.966;2023-08-06T16:23:46;0.43;;;0.27;;
29500;SDS011;16450;50.288;10.966;2023-08-06T16:26:48;1.37;;;0.30;;
29500;SDS011;16450;50.288;10.966;2023-08-06T16:29:50;0.30;;;0.13;;
29500;SDS011;16450;50.288;10.966;2023-08-06T16:32:52;0.57;;;0.20;;
29500;SDS011;16450;50.288;10.966;2023-08-06T16:35:54;1.20;;;0.13;;
29500;SDS011;16450;50.288;10.966;2023-08-06T16:38:56;2.20;;;0.23;;
29500;SDS011;16450;50.288;10.966;2023-08-06T16:41:58;0.50;;;0.20;;
29500;SDS011;16450;50.288;10.966;2023-08-06T16:45:00;0.10;;;0.10;;
29500;SDS011;16450;50.288;10.966;2023-08-06T16:48:02;0.20;;;0.20;;
29500;SDS011;16450;50.288;10.966;2023-08-06T16:51:05;0.80;;;0.30;;
29500;SDS011;16450;50.288;10.966;2023-08-06T16:54:07;0.23;;;0.20;;
29500;SDS011;16450;50.288;10.966;2023-08-06T16:57:09;1.80;;;0.23;;
29500;SDS011;16450;50.288;10.966;2023-08-06T17:00:11;0.37;;;0.20;;
29500;SDS011;16450;50.288;10.966;2023-08-06T17:03:16;0.23;;;0.23;;
29500;SDS011;16450;50.288;10.966;2023-08-06T17:06:19;0.20;;;0.20;;
29500;SDS011;16450;50.288;10.966;2023-08-06T17:09:20;0.30;;;0.30;;
29500;SDS011;16450;50.288;10.966;2023-08-06T17:12:22;0.30;;;0.20;;
29500;SDS011;16450;50.288;10.966;2023-08-06T17:15:24;0.30;;;0.30;;
29500;SDS011;16450;50.288;10.966;2023-08-06T17:18:26;0.20;;;0.20;;
29500;SDS011;16450;50.288;10.966;2023-08-06T17:21:28;0.10;;;0.10;;
29500;SDS011;16450;50.288;10.966;2023-08-06T17:24:30;0.43;;;0.20;;
29500;SDS011;16450;50.288;10.966;2023-08-06T17:27:32;1.23;;;0.20;;
29500;SDS011;16450;50.288;10.966;2023-08-06T17:30:34;0.60;;;0.23;;
29500;SDS011;16450;50.288;10.966;2023-08-06T17:33:36;0.90;;;0.30;;
29500;SDS011;16450;50.288;10.966;2023-08-06T17:36:38;0.33;;;0.30;;
29500;SDS011;16450;50.288;10.966;2023-08-06T17:39:40;0.80;;;0.47;;
29500;SDS011;16450;50.288;10.966;2023-08-06T17:42:42;0.37;;;0.30;;
29500;SDS011;16450;50.288;10.966;2023-08-06T17:45:45;0.30;;;0.30;;
29500;SDS011;16450;50.288;10.966;2023-08-06T17:48:47;0.50;;;0.20;;
29500;SDS011;16450;50.288;10.966;2023-08-06T17:51:48;1.70;;;0.40;;
29500;SDS011;16450;50.288;10.966;2023-08-06T17:54:50;0.77;;;0.40;;
29500;SDS011;16450;50.288;10.966;2023-08-06T17:57:52;0.20;;;0.20;;
29500;SDS011;16450;50.288;10.966;2023-08-06T18:00:54;2.60;;;0.40;;
29500;SDS011;16450;50.288;10.966;2023-08-06T18:03:57;0.70;;;0.30;;
29500;SDS011;16450;50.288;10.966;2023-08-06T18:06:59;0.93;;;0.20;;
29500;SDS011;16450;50.288;10.966;2023-08-06T18:10:00;0.73;;;0.30;;
29500;SDS011;16450;50.288;10.966;2023-08-06T18:13:02;0.40;;;0.40;;
29500;SDS011;16450;50.288;10.966;2023-08-06T18:16:05;0.17;;;0.17;;
29500;SDS011;16450;50.288;10.966;2023-08-06T18:19:07;0.87;;;0.30;;
29500;SDS011;16450;50.288;10.966;2023-08-06T18:22:10;0.40;;;0.40;;
29500;SDS011;16450;50.288;10.966;2023-08-06T18:25:12;0.33;;;0.33;;
29500;SDS011;16450;50.288;10.966;2023-08-06T18:28:14;0.30;;;0.30;;
29500;SDS011;16450;50.288;10.966;2023-08-06T18:31:16;0.47;;;0.30;;
29500;SDS011;16450;50.288;10.966;2023-08-06T18:34:18;0.37;;;0.37;;
29500;SDS011;16450;50.288;10.966;2023-08-06T18:37:20;0.43;;;0.40;;
29500;SDS011;16450;50.288;10.966;2023-08-06T18:40:22;0.30;;;0.30;;
29500;SDS011;16450;50.288;10.966;2023-08-06T18:43:24;0.30;;;0.30;;
29500;SDS011;16450;50.288;10.966;2023-08-06T18:46:26;0.70;;;0.40;;
29500;SDS011;16450;50.288;10.966;2023-08-06T18:49:28;1.17;;;0.50;;
29500;SDS011;16450;50.288;10.966;2023-08-06T18:52:29;0.43;;;0.40;;
29500;SDS011;16450;50.288;10.966;2023-08-06T18:55:32;2.20;;;0.50;;
29500;SDS011;16450;50.288;10.966;2023-08-06T18:58:36;0.67;;;0.47;;
29500;SDS011;16450;50.288;10.966;2023-08-06T19:01:38;0.60;;;0.50;;
29500;SDS011;16450;50.288;10.966;2023-08-06T19:04:40;0.80;;;0.40;;
29500;SDS011;16450;50.288;10.966;2023-08-06T19:07:42;0.67;;;0.40;;
29500;SDS011;16450;50.288;10.966;2023-08-06T19:10:44;0.20;;;0.20;;
29500;SDS011;16450;50.288;10.966;2023-08-06T19:13:46;0.50;;;0.40;;
29500;SDS011;16450;50.288;10.966;2023-08-06T19:16:48;0.50;;;0.40;;
29500;SDS011;16450;50.288;10.966;2023-08-06T19:19:50;0.30;;;0.30;;
29500;SDS011;16450;50.288;10.966;2023-08-06T19:22:52;0.40;;;0.40;;
29500;SDS011;16450;50.288;10.966;2023-08-06T19:25:54;0.47;;;0.40;;
29500;SDS011;16450;50.288;10.966;2023-08-06T19:28:56;0.70;;;0.40;;
29500;SDS011;16450;50.288;10.966;2023-08-06T19:31:59;5.97;;;0.77;;
29500;SDS011;16450;50.288;10.966;2023-08-06T19:35:07;0.80;;;0.53;;
29500;SDS011;16450;50.288;10.966;2023-08-06T19:38:09;0.87;;;0.50;;
29500;SDS011;16450;50.288;10.966;2023-08-06T19:41:11;1.27;;;0.47;;
29500;SDS011;16450;50.288;10.966;2023-08-06T19:44:12;1.13;;;0.43;;
29500;SDS011;16450;50.288;10.966;2023-08-06T19:47:14;2.20;;;0.50;;
29500;SDS011;16450;50.288;10.966;2023-08-06T19:50:16;2.27;;;0.50;;
29500;SDS011;16450;50.288;10.966;2023-08-06T19:53:19;0.80;;;0.60;;
29500;SDS011;16450;50.288;10.966;2023-08-06T19:56:21;0.90;;;0.50;;
29500;SDS011;16450;50.288;10.966;2023-08-06T19:59:23;1.70;;;0.70;;
29500;SDS011;16450;50.288;10.966;2023-08-06T20:02:25;0.47;;;0.47;;
29500;SDS011;16450;50.288;10.966;2023-08-06T20:05:27;1.17;;;0.60;;
29500;SDS011;16450;50.288;10.966;2023-08-06T20:08:29;0.90;;;0.40;;